sensor_id;sensor_type;location;lat;lon;timestamp;P1;durP1;ratioP1;P2;durP2;ratioP2
9438;SDS011;5176;42.622;25.386;2023-08-06T00:00:02;9.88;;;8.98;;
9438;SDS011;5176;42.622;25.386;2023-08-06T00:02:30;9.27;;;8.50;;
9438;SDS011;5176;42.622;25.386;2023-08-06T00:04:57;9.95;;;8.95;;
9438;SDS011;5176;42.622;25.386;2023-08-06T00:07:27;9.63;;;8.65;;
9438;SDS011;5176;42.622;25.386;2023-08-06T00:09:55;11.05;;;9.38;;
9438;SDS011;5176;42.622;25.386;2023-08-06T00:12:23;9.80;;;9.00;;
9438;SDS011;5176;42.622;25.386;2023-08-06T00:14:51;9.98;;;8.95;;
9438;SDS011;5176;42.622;25.386;2023-08-06T00:17:18;11.68;;;9.65;;
9438;SDS011;5176;42.622;25.386;2023-08-06T00:19:46;12.20;;;9.88;;
9438;SDS011;5176;42.622;25.386;2023-08-06T00:22:13;10.95;;;9.85;;
9438;SDS011;5176;42.622;25.386;2023-08-06T00:24:40;13.75;;;10.07;;
9438;SDS011;5176;42.622;25.386;2023-08-06T00:27:07;9.95;;;9.00;;
9438;SDS011;5176;42.622;25.386;2023-08-06T00:29:36;12.77;;;8.82;;
9438;SDS011;5176;42.622;25.386;2023-08-06T00:32:03;10.38;;;9.27;;
9438;SDS011;5176;42.622;25.386;2023-08-06T00:34:30;11.15;;;10.05;;
9438;SDS011;5176;42.622;25.386;2023-08-06T00:36:58;11.07;;;9.48;;
9438;SDS011;5176;42.622;25.386;2023-08-06T00:39:25;10.18;;;9.05;;
9438;SDS011;5176;42.622;25.386;2023-08-06T00:41:52;11.68;;;9.07;;
9438;SDS011;5176;42.622;25.386;2023-08-06T00:44:20;10.65;;;9.43;;
9438;SDS011;5176;42.622;25.386;2023-08-06T00:46:49;10.57;;;9.57;;
9438;SDS011;5176;42.622;25.386;2023-08-06T00:49:16;13.88;;;10.27;;
9438;SDS011;5176;42.622;25.386;2023-08-06T00:51:44;12.90;;;9.82;;
9438;SDS011;5176;42.622;25.386;2023-08-06T00:54:11;10.20;;;9.38;;
9438;SDS011;5176;42.622;25.386;2023-08-06T00:56:39;11.48;;;10.38;;
9438;SDS011;5176;42.622;25.386;2023-08-06T00:59:08;10.45;;;9.35;;
9438;SDS011;5176;42.622;25.386;2023-08-06T01:01:37;10.82;;;9.80;;
9438;SDS011;5176;42.622;25.386;2023-08-06T01:04:06;10.65;;;9.65;;
9438;SDS011;5176;42.622;25.386;2023-08-06T01:06:35;11.07;;;10.05;;
9438;SDS011;5176;42.622;25.386;2023-08-06T01:09:08;10.75;;;9.65;;
9438;SDS011;5176;42.622;25.386;2023-08-06T01:11:50;10.70;;;9.70;;
9438;SDS011;5176;42.622;25.386;2023-08-06T01:14:28;11.30;;;10.18;;
9438;SDS011;5176;42.622;25.386;2023-08-06T01:17:00;10.73;;;9.70;;
9438;SDS011;5176;42.622;25.386;2023-08-06T01:19:31;10.32;;;9.43;;
9438;SDS011;5176;42.622;25.386;2023-08-06T01:22:00;10.15;;;9.13;;
9438;SDS011;5176;42.622;25.386;2023-08-06T01:24:27;10.85;;;9.85;;
9438;SDS011;5176;42.622;25.386;2023-08-06T01:26:57;11.82;;;9.85;;
9438;SDS011;5176;42.622;25.386;2023-08-06T01:29:31;10.73;;;9.73;;
9438;SDS011;5176;42.622;25.386;2023-08-06T01:32:02;11.95;;;10.13;;
9438;SDS011;5176;42.622;25.386;2023-08-06T01:34:31;11.25;;;9.77;;
9438;SDS011;5176;42.622;25.386;2023-08-06T01:37:02;11.57;;;9.95;;
9438;SDS011;5176;42.622;25.386;2023-08-06T01:39:31;13.25;;;9.60;;
9438;SDS011;5176;42.622;25.386;2023-08-06T01:42:00;11.60;;;9.90;;
9438;SDS011;5176;42.622;25.386;2023-08-06T01:44:27;10.40;;;9.40;;
9438;SDS011;5176;42.622;25.386;2023-08-06T01:46:54;10.38;;;9.48;;
9438;SDS011;5176;42.622;25.386;2023-08-06T01:49:22;12.35;;;9.45;;
9438;SDS011;5176;42.622;25.386;2023-08-06T01:51:49;10.02;;;9.18;;
9438;SDS011;5176;42.622;25.386;2023-08-06T01:54:18;11.52;;;10.05;;
9438;SDS011;5176;42.622;25.386;2023-08-06T01:56:45;10.98;;;9.70;;
9438;SDS011;5176;42.622;25.386;2023-08-06T01:59:12;12.40;;;10.20;;
9438;SDS011;5176;42.622;25.386;2023-08-06T02:01:39;11.10;;;9.55;;
9438;SDS011;5176;42.622;25.386;2023-08-06T02:04:06;11.25;;;10.15;;
9438;SDS011;5176;42.622;25.386;2023-08-06T02:06:34;10.93;;;9.82;;
9438;SDS011;5176;42.622;25.386;2023-08-06T02:09:01;10.93;;;10.02;;
9438;SDS011;5176;42.622;25.386;2023-08-06T02:11:30;11.25;;;10.10;;
9438;SDS011;5176;42.622;25.386;2023-08-06T02:13:57;13.00;;;10.73;;
9438;SDS011;5176;42.622;25.386;2023-08-06T02:16:24;12.80;;;10.73;;
9438;SDS011;5176;42.622;25.386;2023-08-06T02:18:52;12.13;;;10.90;;
9438;SDS011;5176;42.622;25.386;2023-08-06T02:21:19;11.32;;;10.32;;
9438;SDS011;5176;42.622;25.386;2023-08-06T02:23:46;11.43;;;10.23;;
9438;SDS011;5176;42.622;25.386;2023-08-06T02:26:13;13.40;;;10.77;;
9438;SDS011;5176;42.622;25.386;2023-08-06T02:28:42;11.70;;;10.65;;
9438;SDS011;5176;42.622;25.386;2023-08-06T02:31:09;11.57;;;10.48;;
9438;SDS011;5176;42.622;25.386;2023-08-06T02:33:36;12.77;;;10.68;;
9438;SDS011;5176;42.622;25.386;2023-08-06T02:36:04;13.00;;;10.57;;
9438;SDS011;5176;42.622;25.386;2023-08-06T02:38:31;11.23;;;10.18;;
9438;SDS011;5176;42.622;25.386;2023-08-06T02:40:58;11.13;;;10.07;;
9438;SDS011;5176;42.622;25.386;2023-08-06T02:43:28;11.95;;;10.70;;
9438;SDS011;5176;42.622;25.386;2023-08-06T02:45:58;13.45;;;11.20;;
9438;SDS011;5176;42.622;25.386;2023-08-06T02:48:25;12.25;;;11.10;;
9438;SDS011;5176;42.622;25.386;2023-08-06T02:50:52;12.32;;;10.90;;
9438;SDS011;5176;42.622;25.386;2023-08-06T02:53:19;11.63;;;10.43;;
9438;SDS011;5176;42.622;25.386;2023-08-06T02:55:47;12.70;;;11.40;;
9438;SDS011;5176;42.622;25.386;2023-08-06T02:58:14;12.38;;;11.07;;
9438;SDS011;5176;42.622;25.386;2023-08-06T03:00:42;12.38;;;11.07;;
9438;SDS011;5176;42.622;25.386;2023-08-06T03:03:12;13.13;;;11.73;;
9438;SDS011;5176;42.622;25.386;2023-08-06T03:05:39;12.95;;;11.10;;
9438;SDS011;5176;42.622;25.386;2023-08-06T03:08:06;14.43;;;11.07;;
9438;SDS011;5176;42.622;25.386;2023-08-06T03:10:33;12.43;;;11.15;;
9438;SDS011;5176;42.622;25.386;2023-08-06T03:13:01;12.77;;;11.48;;
9438;SDS011;5176;42.622;25.386;2023-08-06T03:15:29;12.35;;;11.05;;
9438;SDS011;5176;42.622;25.386;2023-08-06T03:17:56;12.65;;;11.45;;
9438;SDS011;5176;42.622;25.386;2023-08-06T03:20:25;12.13;;;10.93;;
9438;SDS011;5176;42.622;25.386;2023-08-06T03:22:52;13.00;;;11.60;;
9438;SDS011;5176;42.622;25.386;2023-08-06T03:25:19;12.40;;;11.10;;
9438;SDS011;5176;42.622;25.386;2023-08-06T03:27:46;13.88;;;11.07;;
9438;SDS011;5176;42.622;25.386;2023-08-06T03:30:14;12.80;;;11.30;;
9438;SDS011;5176;42.622;25.386;2023-08-06T03:32:41;15.23;;;12.02;;
9438;SDS011;5176;42.622;25.386;2023-08-06T03:35:08;12.82;;;11.68;;
9438;SDS011;5176;42.622;25.386;2023-08-06T03:37:37;12.73;;;11.43;;
9438;SDS011;5176;42.622;25.386;2023-08-06T03:40:05;12.07;;;10.90;;
9438;SDS011;5176;42.622;25.386;2023-08-06T03:42:33;13.23;;;11.93;;
9438;SDS011;5176;42.622;25.386;2023-08-06T03:45:00;16.33;;;12.18;;
9438;SDS011;5176;42.622;25.386;2023-08-06T03:47:28;13.52;;;12.00;;
9438;SDS011;5176;42.622;25.386;2023-08-06T03:49:55;13.63;;;12.05;;
9438;SDS011;5176;42.622;25.386;2023-08-06T03:52:22;13.55;;;12.23;;
9438;SDS011;5176;42.622;25.386;2023-08-06T03:54:51;13.50;;;12.18;;
9438;SDS011;5176;42.622;25.386;2023-08-06T03:57:18;14.50;;;12.38;;
9438;SDS011;5176;42.622;25.386;2023-08-06T03:59:45;13.50;;;12.00;;
9438;SDS011;5176;42.622;25.386;2023-08-06T04:02:12;13.20;;;11.80;;
9438;SDS011;5176;42.622;25.386;2023-08-06T04:04:40;14.43;;;12.95;;
9438;SDS011;5176;42.622;25.386;2023-08-06T04:07:07;13.43;;;12.13;;
9438;SDS011;5176;42.622;25.386;2023-08-06T04:09:35;14.32;;;12.75;;
9438;SDS011;5176;42.622;25.386;2023-08-06T04:12:20;15.07;;;12.38;;
9438;SDS011;5176;42.622;25.386;2023-08-06T04:14:48;14.20;;;12.50;;
9438;SDS011;5176;42.622;25.386;2023-08-06T04:17:15;17.40;;;12.57;;
9438;SDS011;5176;42.622;25.386;2023-08-06T04:19:42;14.55;;;13.13;;
9438;SDS011;5176;42.622;25.386;2023-08-06T04:22:09;13.63;;;12.32;;
9438;SDS011;5176;42.622;25.386;2023-08-06T04:24:37;14.00;;;12.25;;
9438;SDS011;5176;42.622;25.386;2023-08-06T04:27:06;14.05;;;12.55;;
9438;SDS011;5176;42.622;25.386;2023-08-06T04:29:33;16.35;;;12.50;;
9438;SDS011;5176;42.622;25.386;2023-08-06T04:32:00;15.25;;;13.10;;
9438;SDS011;5176;42.622;25.386;2023-08-06T04:34:27;14.30;;;12.68;;
9438;SDS011;5176;42.622;25.386;2023-08-06T04:36:55;15.20;;;12.80;;
9438;SDS011;5176;42.622;25.386;2023-08-06T04:39:22;13.95;;;12.32;;
9438;SDS011;5176;42.622;25.386;2023-08-06T04:41:49;13.25;;;11.90;;
9438;SDS011;5176;42.622;25.386;2023-08-06T04:44:18;13.60;;;12.38;;
9438;SDS011;5176;42.622;25.386;2023-08-06T04:46:45;13.75;;;12.30;;
9438;SDS011;5176;42.622;25.386;2023-08-06T04:49:13;13.60;;;12.20;;
9438;SDS011;5176;42.622;25.386;2023-08-06T04:51:40;14.10;;;12.10;;
9438;SDS011;5176;42.622;25.386;2023-08-06T04:54:07;14.57;;;12.95;;
9438;SDS011;5176;42.622;25.386;2023-08-06T04:56:34;14.27;;;12.90;;
9438;SDS011;5176;42.622;25.386;2023-08-06T04:59:01;13.77;;;12.45;;
9438;SDS011;5176;42.622;25.386;2023-08-06T05:01:30;17.40;;;12.82;;
9438;SDS011;5176;42.622;25.386;2023-08-06T05:03:58;13.52;;;12.30;;
9438;SDS011;5176;42.622;25.386;2023-08-06T05:06:25;13.30;;;12.00;;
9438;SDS011;5176;42.622;25.386;2023-08-06T05:08:52;12.43;;;11.23;;
9438;SDS011;5176;42.622;25.386;2023-08-06T05:11:19;18.23;;;11.30;;
9438;SDS011;5176;42.622;25.386;2023-08-06T05:13:46;12.88;;;11.63;;
9438;SDS011;5176;42.622;25.386;2023-08-06T05:16:14;13.65;;;12.15;;
9438;SDS011;5176;42.622;25.386;2023-08-06T05:18:43;14.02;;;11.93;;
9438;SDS011;5176;42.622;25.386;2023-08-06T05:21:10;13.52;;;12.32;;
9438;SDS011;5176;42.622;25.386;2023-08-06T05:23:37;13.40;;;12.10;;
9438;SDS011;5176;42.622;25.386;2023-08-06T05:26:05;13.40;;;11.75;;
9438;SDS011;5176;42.622;25.386;2023-08-06T05:28:32;12.50;;;11.27;;
9438;SDS011;5176;42.622;25.386;2023-08-06T05:31:02;15.40;;;12.57;;
9438;SDS011;5176;42.622;25.386;2023-08-06T05:33:30;13.18;;;11.82;;
9438;SDS011;5176;42.622;25.386;2023-08-06T05:35:59;14.38;;;12.52;;
9438;SDS011;5176;42.622;25.386;2023-08-06T05:38:26;13.85;;;12.52;;
9438;SDS011;5176;42.622;25.386;2023-08-06T05:40:53;14.32;;;13.00;;
9438;SDS011;5176;42.622;25.386;2023-08-06T05:43:21;15.68;;;12.80;;
9438;SDS011;5176;42.622;25.386;2023-08-06T05:45:49;12.48;;;11.43;;
9438;SDS011;5176;42.622;25.386;2023-08-06T05:48:17;14.45;;;12.45;;
9438;SDS011;5176;42.622;25.386;2023-08-06T05:50:44;14.07;;;11.45;;
9438;SDS011;5176;42.622;25.386;2023-08-06T05:53:13;13.52;;;12.23;;
9438;SDS011;5176;42.622;25.386;2023-08-06T05:55:40;14.65;;;11.95;;
9438;SDS011;5176;42.622;25.386;2023-08-06T05:58:07;13.18;;;11.43;;
9438;SDS011;5176;42.622;25.386;2023-08-06T06:00:34;15.20;;;11.55;;
9438;SDS011;5176;42.622;25.386;2023-08-06T06:03:02;13.18;;;11.98;;
9438;SDS011;5176;42.622;25.386;2023-08-06T06:05:29;13.50;;;12.10;;
9438;SDS011;5176;42.622;25.386;2023-08-06T06:07:56;13.50;;;12.13;;
9438;SDS011;5176;42.622;25.386;2023-08-06T06:10:25;12.57;;;11.27;;
9438;SDS011;5176;42.622;25.386;2023-08-06T06:12:53;12.32;;;11.27;;
9438;SDS011;5176;42.622;25.386;2023-08-06T06:15:20;18.33;;;12.40;;
9438;SDS011;5176;42.622;25.386;2023-08-06T06:17:47;11.65;;;10.48;;
9438;SDS011;5176;42.622;25.386;2023-08-06T06:20:15;11.70;;;10.60;;
9438;SDS011;5176;42.622;25.386;2023-08-06T06:22:42;12.90;;;10.07;;
9438;SDS011;5176;42.622;25.386;2023-08-06T06:25:09;16.00;;;10.07;;
9438;SDS011;5176;42.622;25.386;2023-08-06T06:27:38;12.27;;;10.07;;
9438;SDS011;5176;42.622;25.386;2023-08-06T06:30:06;10.52;;;9.45;;
9438;SDS011;5176;42.622;25.386;2023-08-06T06:32:34;13.07;;;10.32;;
9438;SDS011;5176;42.622;25.386;2023-08-06T06:35:01;11.27;;;9.25;;
9438;SDS011;5176;42.622;25.386;2023-08-06T06:37:29;10.35;;;9.43;;
9438;SDS011;5176;42.622;25.386;2023-08-06T06:39:56;13.93;;;8.98;;
9438;SDS011;5176;42.622;25.386;2023-08-06T06:42:24;9.98;;;8.75;;
9438;SDS011;5176;42.622;25.386;2023-08-06T06:44:52;11.60;;;9.65;;
9438;SDS011;5176;42.622;25.386;2023-08-06T06:47:20;10.15;;;9.15;;
9438;SDS011;5176;42.622;25.386;2023-08-06T06:49:47;11.10;;;9.82;;
9438;SDS011;5176;42.622;25.386;2023-08-06T06:52:14;11.18;;;9.90;;
9438;SDS011;5176;42.622;25.386;2023-08-06T06:54:41;10.00;;;9.10;;
9438;SDS011;5176;42.622;25.386;2023-08-06T06:57:09;10.75;;;9.75;;
9438;SDS011;5176;42.622;25.386;2023-08-06T06:59:36;12.52;;;9.88;;
9438;SDS011;5176;42.622;25.386;2023-08-06T07:02:05;15.85;;;10.07;;
9438;SDS011;5176;42.622;25.386;2023-08-06T07:04:32;25.35;;;12.90;;
9438;SDS011;5176;42.622;25.386;2023-08-06T07:06:59;19.80;;;13.50;;
9438;SDS011;5176;42.622;25.386;2023-08-06T07:09:27;14.25;;;10.80;;
9438;SDS011;5176;42.622;25.386;2023-08-06T07:11:54;22.23;;;13.57;;
9438;SDS011;5176;42.622;25.386;2023-08-06T07:14:22;16.80;;;13.63;;
9438;SDS011;5176;42.622;25.386;2023-08-06T07:16:51;21.00;;;14.00;;
9438;SDS011;5176;42.622;25.386;2023-08-06T07:19:20;16.85;;;12.98;;
9438;SDS011;5176;42.622;25.386;2023-08-06T07:21:48;17.33;;;14.27;;
9438;SDS011;5176;42.622;25.386;2023-08-06T07:24:16;16.88;;;14.13;;
9438;SDS011;5176;42.622;25.386;2023-08-06T07:26:43;14.85;;;13.48;;
9438;SDS011;5176;42.622;25.386;2023-08-06T07:29:10;16.08;;;14.38;;
9438;SDS011;5176;42.622;25.386;2023-08-06T07:31:38;17.60;;;14.35;;
9438;SDS011;5176;42.622;25.386;2023-08-06T07:34:05;15.45;;;14.05;;
9438;SDS011;5176;42.622;25.386;2023-08-06T07:36:34;17.75;;;15.52;;
9438;SDS011;5176;42.622;25.386;2023-08-06T07:39:01;16.88;;;15.20;;
9438;SDS011;5176;42.622;25.386;2023-08-06T07:41:31;19.00;;;16.02;;
9438;SDS011;5176;42.622;25.386;2023-08-06T07:43:58;18.75;;;16.73;;
9438;SDS011;5176;42.622;25.386;2023-08-06T07:46:26;18.33;;;16.45;;
9438;SDS011;5176;42.622;25.386;2023-08-06T07:48:53;17.10;;;15.32;;
9438;SDS011;5176;42.622;25.386;2023-08-06T07:51:20;17.85;;;15.88;;
9438;SDS011;5176;42.622;25.386;2023-08-06T07:53:49;18.33;;;16.60;;
9438;SDS011;5176;42.622;25.386;2023-08-06T07:56:17;19.98;;;17.83;;
9438;SDS011;5176;42.622;25.386;2023-08-06T07:58:44;19.35;;;17.25;;
9438;SDS011;5176;42.622;25.386;2023-08-06T08:01:12;21.63;;;19.30;;
9438;SDS011;5176;42.622;25.386;2023-08-06T08:03:39;21.13;;;18.88;;
9438;SDS011;5176;42.622;25.386;2023-08-06T08:06:06;22.83;;;20.42;;
9438;SDS011;5176;42.622;25.386;2023-08-06T08:08:34;23.45;;;21.17;;
9438;SDS011;5176;42.622;25.386;2023-08-06T08:11:05;23.20;;;20.90;;
9438;SDS011;5176;42.622;25.386;2023-08-06T08:13:33;24.25;;;21.58;;
9438;SDS011;5176;42.622;25.386;2023-08-06T08:16:00;23.98;;;21.45;;
9438;SDS011;5176;42.622;25.386;2023-08-06T08:18:28;25.15;;;21.45;;
9438;SDS011;5176;42.622;25.386;2023-08-06T08:20:57;25.67;;;22.92;;
9438;SDS011;5176;42.622;25.386;2023-08-06T08:23:24;24.67;;;22.13;;
9438;SDS011;5176;42.622;25.386;2023-08-06T08:25:51;23.88;;;21.42;;
9438;SDS011;5176;42.622;25.386;2023-08-06T08:28:20;23.65;;;21.20;;
9438;SDS011;5176;42.622;25.386;2023-08-06T08:30:48;23.50;;;21.25;;
9438;SDS011;5176;42.622;25.386;2023-08-06T08:33:15;22.20;;;19.95;;
9438;SDS011;5176;42.622;25.386;2023-08-06T08:35:43;22.60;;;20.33;;
9438;SDS011;5176;42.622;25.386;2023-08-06T08:38:12;21.38;;;19.15;;
9438;SDS011;5176;42.622;25.386;2023-08-06T08:40:45;18.30;;;16.48;;
9438;SDS011;5176;42.622;25.386;2023-08-06T08:43:13;20.00;;;17.95;;
9438;SDS011;5176;42.622;25.386;2023-08-06T08:45:43;19.20;;;17.27;;
9438;SDS011;5176;42.622;25.386;2023-08-06T08:48:16;17.95;;;16.25;;
9438;SDS011;5176;42.622;25.386;2023-08-06T08:50:45;17.92;;;16.08;;
9438;SDS011;5176;42.622;25.386;2023-08-06T08:53:15;18.08;;;16.35;;
9438;SDS011;5176;42.622;25.386;2023-08-06T08:55:43;20.27;;;16.88;;
9438;SDS011;5176;42.622;25.386;2023-08-06T08:58:13;17.48;;;15.85;;
9438;SDS011;5176;42.622;25.386;2023-08-06T09:00:41;19.83;;;17.88;;
9438;SDS011;5176;42.622;25.386;2023-08-06T09:03:10;16.88;;;15.20;;
9438;SDS011;5176;42.622;25.386;2023-08-06T09:05:38;17.55;;;15.63;;
9438;SDS011;5176;42.622;25.386;2023-08-06T09:08:11;18.15;;;16.35;;
9438;SDS011;5176;42.622;25.386;2023-08-06T09:10:43;18.90;;;16.90;;
9438;SDS011;5176;42.622;25.386;2023-08-06T09:13:11;18.48;;;16.65;;
9438;SDS011;5176;42.622;25.386;2023-08-06T09:15:41;21.05;;;17.63;;
9438;SDS011;5176;42.622;25.386;2023-08-06T09:18:13;18.67;;;17.08;;
9438;SDS011;5176;42.622;25.386;2023-08-06T09:20:40;19.27;;;17.08;;
9438;SDS011;5176;42.622;25.386;2023-08-06T09:23:08;21.42;;;17.10;;
9438;SDS011;5176;42.622;25.386;2023-08-06T09:25:37;19.30;;;17.40;;
9438;SDS011;5176;42.622;25.386;2023-08-06T09:28:06;19.73;;;17.98;;
9438;SDS011;5176;42.622;25.386;2023-08-06T09:30:34;18.65;;;16.58;;
9438;SDS011;5176;42.622;25.386;2023-08-06T09:33:02;19.08;;;17.27;;
9438;SDS011;5176;42.622;25.386;2023-08-06T09:35:31;20.27;;;18.10;;
9438;SDS011;5176;42.622;25.386;2023-08-06T09:38:05;20.52;;;18.52;;
9438;SDS011;5176;42.622;25.386;2023-08-06T09:40:34;21.15;;;19.15;;
9438;SDS011;5176;42.622;25.386;2023-08-06T09:43:01;22.13;;;19.90;;
9438;SDS011;5176;42.622;25.386;2023-08-06T09:45:30;22.45;;;20.35;;
9438;SDS011;5176;42.622;25.386;2023-08-06T09:47:59;20.75;;;18.52;;
9438;SDS011;5176;42.622;25.386;2023-08-06T09:50:29;21.15;;;19.20;;
9438;SDS011;5176;42.622;25.386;2023-08-06T09:53:00;20.60;;;18.48;;
9438;SDS011;5176;42.622;25.386;2023-08-06T09:55:28;20.67;;;18.77;;
9438;SDS011;5176;42.622;25.386;2023-08-06T09:57:56;22.40;;;20.35;;
9438;SDS011;5176;42.622;25.386;2023-08-06T10:00:25;23.92;;;21.73;;
9438;SDS011;5176;42.622;25.386;2023-08-06T10:02:53;22.33;;;20.42;;
9438;SDS011;5176;42.622;25.386;2023-08-06T10:05:22;24.55;;;22.25;;
9438;SDS011;5176;42.622;25.386;2023-08-06T10:07:51;24.80;;;22.27;;
9438;SDS011;5176;42.622;25.386;2023-08-06T10:10:21;16.45;;;14.90;;
9438;SDS011;5176;42.622;25.386;2023-08-06T10:12:50;5.47;;;5.00;;
9438;SDS011;5176;42.622;25.386;2023-08-06T10:15:22;4.93;;;3.80;;
9438;SDS011;5176;42.622;25.386;2023-08-06T10:17:54;7.25;;;4.97;;
9438;SDS011;5176;42.622;25.386;2023-08-06T10:20:23;9.77;;;4.72;;
9438;SDS011;5176;42.622;25.386;2023-08-06T10:23:01;10.68;;;3.75;;
9438;SDS011;5176;42.622;25.386;2023-08-06T10:25:33;5.07;;;2.67;;
9438;SDS011;5176;42.622;25.386;2023-08-06T10:28:01;6.28;;;2.53;;
9438;SDS011;5176;42.622;25.386;2023-08-06T10:30:37;9.65;;;3.42;;
9438;SDS011;5176;42.622;25.386;2023-08-06T10:33:09;7.10;;;4.10;;
9438;SDS011;5176;42.622;25.386;2023-08-06T10:35:36;7.57;;;3.22;;
9438;SDS011;5176;42.622;25.386;2023-08-06T10:38:11;4.25;;;2.45;;
9438;SDS011;5176;42.622;25.386;2023-08-06T10:43:29;2.55;;;1.92;;
9438;SDS011;5176;42.622;25.386;2023-08-06T10:45:58;3.38;;;1.98;;
9438;SDS011;5176;42.622;25.386;2023-08-06T10:48:30;2.83;;;2.20;;
9438;SDS011;5176;42.622;25.386;2023-08-06T10:51:00;3.17;;;1.92;;
9438;SDS011;5176;42.622;25.386;2023-08-06T10:53:29;2.83;;;2.15;;
9438;SDS011;5176;42.622;25.386;2023-08-06T10:55:57;3.88;;;2.00;;
9438;SDS011;5176;42.622;25.386;2023-08-06T10:58:25;1.95;;;1.80;;
9438;SDS011;5176;42.622;25.386;2023-08-06T11:00:57;4.40;;;2.00;;
9438;SDS011;5176;42.622;25.386;2023-08-06T11:03:26;4.65;;;1.95;;
9438;SDS011;5176;42.622;25.386;2023-08-06T11:05:53;2.50;;;2.20;;
9438;SDS011;5176;42.622;25.386;2023-08-06T11:08:23;3.58;;;1.98;;
9438;SDS011;5176;42.622;25.386;2023-08-06T11:10:53;3.20;;;1.65;;
9438;SDS011;5176;42.622;25.386;2023-08-06T11:13:20;2.13;;;1.92;;
9438;SDS011;5176;42.622;25.386;2023-08-06T11:15:48;1.85;;;1.75;;
9438;SDS011;5176;42.622;25.386;2023-08-06T11:18:15;2.20;;;2.00;;
9438;SDS011;5176;42.622;25.386;2023-08-06T11:20:43;2.20;;;2.00;;
9438;SDS011;5176;42.622;25.386;2023-08-06T11:23:12;2.30;;;2.10;;
9438;SDS011;5176;42.622;25.386;2023-08-06T11:25:43;3.22;;;2.35;;
9438;SDS011;5176;42.622;25.386;2023-08-06T11:28:13;2.35;;;2.15;;
9438;SDS011;5176;42.622;25.386;2023-08-06T11:30:40;3.45;;;2.50;;
9438;SDS011;5176;42.622;25.386;2023-08-06T11:33:07;2.83;;;2.63;;
9438;SDS011;5176;42.622;25.386;2023-08-06T11:35:35;2.65;;;2.45;;
9438;SDS011;5176;42.622;25.386;2023-08-06T11:38:04;2.60;;;2.40;;
9438;SDS011;5176;42.622;25.386;2023-08-06T11:40:31;2.92;;;2.72;;
9438;SDS011;5176;42.622;25.386;2023-08-06T11:42:59;4.80;;;3.00;;
9438;SDS011;5176;42.622;25.386;2023-08-06T11:45:28;2.75;;;2.55;;
9438;SDS011;5176;42.622;25.386;2023-08-06T11:47:55;2.88;;;2.67;;
9438;SDS011;5176;42.622;25.386;2023-08-06T11:50:24;2.97;;;2.78;;
9438;SDS011;5176;42.622;25.386;2023-08-06T11:52:55;3.08;;;2.88;;
9438;SDS011;5176;42.622;25.386;2023-08-06T11:55:24;3.28;;;3.00;;
9438;SDS011;5176;42.622;25.386;2023-08-06T11:57:52;3.00;;;2.80;;
9438;SDS011;5176;42.622;25.386;2023-08-06T12:00:19;3.72;;;3.20;;
9438;SDS011;5176;42.622;25.386;2023-08-06T12:02:49;3.00;;;2.80;;
9438;SDS011;5176;42.622;25.386;2023-08-06T12:05:18;5.43;;;2.92;;
9438;SDS011;5176;42.622;25.386;2023-08-06T12:07:49;3.58;;;2.97;;
9438;SDS011;5176;42.622;25.386;2023-08-06T12:10:17;3.50;;;3.20;;
9438;SDS011;5176;42.622;25.386;2023-08-06T12:12:46;3.30;;;3.00;;
9438;SDS011;5176;42.622;25.386;2023-08-06T12:15:13;2.80;;;2.63;;
9438;SDS011;5176;42.622;25.386;2023-08-06T12:17:41;3.53;;;3.30;;
9438;SDS011;5176;42.622;25.386;2023-08-06T12:20:10;3.00;;;2.80;;
9438;SDS011;5176;42.622;25.386;2023-08-06T12:22:37;3.40;;;3.10;;
9438;SDS011;5176;42.622;25.386;2023-08-06T12:25:06;4.13;;;3.20;;
9438;SDS011;5176;42.622;25.386;2023-08-06T12:27:36;3.25;;;3.05;;
9438;SDS011;5176;42.622;25.386;2023-08-06T12:30:04;3.20;;;3.00;;
9438;SDS011;5176;42.622;25.386;2023-08-06T12:32:33;3.47;;;3.03;;
9438;SDS011;5176;42.622;25.386;2023-08-06T12:35:00;3.05;;;2.85;;
9438;SDS011;5176;42.622;25.386;2023-08-06T12:37:29;3.28;;;3.08;;
9438;SDS011;5176;42.622;25.386;2023-08-06T12:39:57;3.28;;;2.97;;
9438;SDS011;5176;42.622;25.386;2023-08-06T12:42:24;3.20;;;3.00;;
9438;SDS011;5176;42.622;25.386;2023-08-06T12:44:51;3.05;;;2.85;;
9438;SDS011;5176;42.622;25.386;2023-08-06T12:47:19;3.25;;;3.05;;
9438;SDS011;5176;42.622;25.386;2023-08-06T12:49:46;3.22;;;2.97;;
9438;SDS011;5176;42.622;25.386;2023-08-06T12:52:14;3.05;;;2.75;;
9438;SDS011;5176;42.622;25.386;2023-08-06T12:54:47;2.80;;;2.60;;
9438;SDS011;5176;42.622;25.386;2023-08-06T12:57:14;2.88;;;2.67;;
9438;SDS011;5176;42.622;25.386;2023-08-06T12:59:42;3.08;;;2.88;;
9438;SDS011;5176;42.622;25.386;2023-08-06T13:02:10;2.75;;;2.65;;
9438;SDS011;5176;42.622;25.386;2023-08-06T13:04:37;3.55;;;3.00;;
9438;SDS011;5176;42.622;25.386;2023-08-06T13:07:05;2.92;;;2.72;;
9438;SDS011;5176;42.622;25.386;2023-08-06T13:09:32;3.00;;;2.80;;
9438;SDS011;5176;42.622;25.386;2023-08-06T13:12:01;3.10;;;2.90;;
9438;SDS011;5176;42.622;25.386;2023-08-06T13:14:31;3.13;;;2.92;;
9438;SDS011;5176;42.622;25.386;2023-08-06T13:16:58;3.45;;;3.15;;
9438;SDS011;5176;42.622;25.386;2023-08-06T13:19:25;3.55;;;3.25;;
9438;SDS011;5176;42.622;25.386;2023-08-06T13:22:03;3.00;;;2.80;;
9438;SDS011;5176;42.622;25.386;2023-08-06T13:24:31;3.17;;;2.97;;
9438;SDS011;5176;42.622;25.386;2023-08-06T13:26:58;5.53;;;2.92;;
9438;SDS011;5176;42.622;25.386;2023-08-06T13:29:27;4.65;;;3.10;;
9438;SDS011;5176;42.622;25.386;2023-08-06T13:31:54;3.83;;;3.20;;
9438;SDS011;5176;42.622;25.386;2023-08-06T13:34:22;3.00;;;2.80;;
9438;SDS011;5176;42.622;25.386;2023-08-06T13:36:49;3.33;;;3.10;;
9438;SDS011;5176;42.622;25.386;2023-08-06T13:39:16;3.65;;;3.40;;
9438;SDS011;5176;42.622;25.386;2023-08-06T13:41:45;3.10;;;2.90;;
9438;SDS011;5176;42.622;25.386;2023-08-06T13:44:12;3.40;;;3.20;;
9438;SDS011;5176;42.622;25.386;2023-08-06T13:46:42;3.60;;;3.30;;
9438;SDS011;5176;42.622;25.386;2023-08-06T13:49:09;3.00;;;2.85;;
9438;SDS011;5176;42.622;25.386;2023-08-06T13:51:37;3.13;;;2.92;;
9438;SDS011;5176;42.622;25.386;2023-08-06T13:54:04;3.10;;;2.90;;
9438;SDS011;5176;42.622;25.386;2023-08-06T13:56:32;3.88;;;3.13;;
9438;SDS011;5176;42.622;25.386;2023-08-06T13:59:02;3.88;;;3.30;;
9438;SDS011;5176;42.622;25.386;2023-08-06T14:01:30;3.60;;;2.72;;
9438;SDS011;5176;42.622;25.386;2023-08-06T14:03:59;3.92;;;3.63;;
9438;SDS011;5176;42.622;25.386;2023-08-06T14:06:26;3.30;;;3.10;;
9438;SDS011;5176;42.622;25.386;2023-08-06T14:08:53;3.85;;;3.28;;
9438;SDS011;5176;42.622;25.386;2023-08-06T14:11:21;3.28;;;3.08;;
9438;SDS011;5176;42.622;25.386;2023-08-06T14:13:48;3.83;;;3.53;;
9438;SDS011;5176;42.622;25.386;2023-08-06T14:16:15;4.32;;;3.17;;
9438;SDS011;5176;42.622;25.386;2023-08-06T14:18:43;3.70;;;3.40;;
9438;SDS011;5176;42.622;25.386;2023-08-06T14:21:12;3.78;;;3.47;;
9438;SDS011;5176;42.622;25.386;2023-08-06T14:23:39;3.53;;;3.33;;
9438;SDS011;5176;42.622;25.386;2023-08-06T14:26:07;3.40;;;3.20;;
9438;SDS011;5176;42.622;25.386;2023-08-06T14:28:36;3.22;;;3.03;;
9438;SDS011;5176;42.622;25.386;2023-08-06T14:31:03;4.55;;;4.05;;
9438;SDS011;5176;42.622;25.386;2023-08-06T14:33:30;4.35;;;3.35;;
9438;SDS011;5176;42.622;25.386;2023-08-06T14:35:58;3.42;;;3.22;;
9438;SDS011;5176;42.622;25.386;2023-08-06T14:38:27;3.08;;;2.85;;
9438;SDS011;5176;42.622;25.386;2023-08-06T14:40:54;3.67;;;3.00;;
9438;SDS011;5176;42.622;25.386;2023-08-06T14:43:21;3.75;;;3.33;;
9438;SDS011;5176;42.622;25.386;2023-08-06T14:45:49;4.80;;;4.22;;
9438;SDS011;5176;42.622;25.386;2023-08-06T14:48:16;3.78;;;3.47;;
9438;SDS011;5176;42.622;25.386;2023-08-06T14:50:43;3.05;;;2.85;;
9438;SDS011;5176;42.622;25.386;2023-08-06T14:53:11;3.38;;;2.95;;